createdAt,value
2023-03-16T00:04:41.030Z,5.60
2023-03-16T00:09:49.184Z,4.43
2023-03-16T00:14:57.927Z,3.65
2023-03-16T00:20:06.135Z,2.63
2023-03-16T00:25:14.659Z,2.24
2023-03-16T00:30:23.408Z,3.03
2023-03-16T00:35:32.621Z,2.59
2023-03-16T00:40:41.495Z,3.34
2023-03-16T00:45:50.224Z,3.43
2023-03-16T00:50:58.477Z,2.78
2023-03-16T00:56:07.362Z,2.97
2023-03-16T01:01:15.608Z,3.51
2023-03-16T01:06:24.138Z,3.99
2023-03-16T01:11:32.610Z,4.83
2023-03-16T01:16:41.699Z,7.01
2023-03-16T01:21:50.464Z,9.33
2023-03-16T01:26:59.131Z,9.86
2023-03-16T01:32:07.879Z,10.76
2023-03-16T01:37:16.598Z,12.90
2023-03-16T01:42:24.847Z,11.15
2023-03-16T01:47:33.914Z,6.89
2023-03-16T01:52:42.142Z,6.82
2023-03-16T01:57:50.733Z,13.18
2023-03-16T02:02:59.246Z,8.91
2023-03-16T02:08:07.929Z,10.18
2023-03-16T02:13:16.232Z,10.47
2023-03-16T02:18:25.201Z,8.79
2023-03-16T02:23:33.764Z,9.40
2023-03-16T02:28:42.415Z,10.82
2023-03-16T02:33:50.751Z,11.27
2023-03-16T02:38:59.686Z,9.40
2023-03-16T02:44:08.122Z,9.76
2023-03-16T02:49:17.196Z,8.46
2023-03-16T02:54:25.596Z,10.15
2023-03-16T02:59:34.827Z,9.29
2023-03-16T03:04:43.182Z,11.78
2023-03-16T03:09:51.618Z,10.90
2023-03-16T03:15:00.215Z,9.83
2023-03-16T03:20:09.179Z,8.96
2023-03-16T03:25:17.573Z,7.17
2023-03-16T03:30:26.562Z,6.14
2023-03-16T03:35:34.663Z,5.71
2023-03-16T03:40:43.940Z,4.34
2023-03-16T03:45:52.498Z,4.36
2023-03-16T03:51:01.275Z,3.14
2023-03-16T03:56:09.772Z,3.12
2023-03-16T04:01:18.609Z,2.94
2023-03-16T04:06:26.732Z,3.19
2023-03-16T04:11:35.554Z,3.95
2023-03-16T04:16:43.850Z,3.98
2023-03-16T04:21:52.564Z,4.84
2023-03-16T04:27:01.155Z,7.10
2023-03-16T04:32:10.111Z,9.68
2023-03-16T04:37:18.754Z,15.78
2023-03-16T04:42:27.730Z,14.95
2023-03-16T04:47:36.074Z,21.63
2023-03-16T04:52:44.648Z,19.81
2023-03-16T04:57:52.942Z,28.58
2023-03-16T05:03:01.632Z,23.38
2023-03-16T05:08:10.338Z,27.87
2023-03-16T05:13:19.503Z,27.94
2023-03-16T05:18:27.940Z,33.52
2023-03-16T05:23:36.514Z,29.57
2023-03-16T05:28:44.465Z,32.88
2023-03-16T05:33:53.549Z,30.43
2023-03-16T05:39:02.548Z,23.05
2023-03-16T05:44:11.822Z,18.32
2023-03-16T05:49:20.169Z,15.64
2023-03-16T05:54:29.157Z,10.65
2023-03-16T05:59:37.579Z,10.80
2023-03-16T06:04:47.746Z,12.74
2023-03-16T06:09:45.777Z,11.03
2023-03-16T06:14:54.459Z,9.26
2023-03-16T06:20:04.011Z,7.75
2023-03-16T06:25:12.565Z,5.65
2023-03-16T06:30:23.538Z,4.37
2023-03-16T06:35:21.973Z,3.40
2023-03-16T06:40:31.549Z,2.80
2023-03-16T06:45:40.761Z,1.70
2023-03-16T06:50:52.285Z,1.88
2023-03-16T06:55:51.693Z,2.89
2023-03-16T07:01:00.218Z,2.31
2023-03-16T07:06:10.156Z,2.50
2023-03-16T07:11:18.415Z,2.09
2023-03-16T07:16:29.531Z,6.25
2023-03-16T07:21:28.773Z,4.46
2023-03-16T07:26:38.191Z,4.64
2023-03-16T07:31:46.779Z,5.74
2023-03-16T07:36:56.881Z,4.17
2023-03-16T07:41:56.673Z,3.15
2023-03-16T07:47:06.792Z,3.01
2023-03-16T07:52:07.295Z,2.85
2023-03-16T07:57:05.356Z,4.70
2023-03-16T08:02:13.655Z,3.62
2023-03-16T08:07:23.523Z,9.30
2023-03-16T08:12:33.463Z,4.61
2023-03-16T08:17:43.692Z,4.76
2023-03-16T08:22:43.073Z,3.96
2023-03-16T08:27:53.553Z,4.35
2023-03-16T08:32:53.141Z,5.12
2023-03-16T08:38:04.090Z,6.09
2023-03-16T08:43:02.012Z,7.77
2023-03-16T08:48:11.891Z,8.30
2023-03-16T08:53:21.805Z,8.44
2023-03-16T08:58:31.590Z,7.33
2023-03-16T09:03:41.733Z,7.85
2023-03-16T09:08:40.859Z,6.83
2023-03-16T09:13:52.817Z,4.00
2023-03-16T09:19:00.203Z,3.17
2023-03-16T09:24:09.812Z,6.83
2023-03-16T09:29:19.680Z,7.24
2023-03-16T09:34:29.949Z,8.48
2023-03-16T09:39:38.781Z,5.43
2023-03-16T09:44:36.912Z,5.26
2023-03-16T09:49:45.512Z,3.52
2023-03-16T09:54:54.647Z,5.18
2023-03-16T10:00:03.934Z,6.21
2023-03-16T10:05:12.625Z,6.25
2023-03-16T10:10:22.935Z,6.63
2023-03-16T10:15:21.257Z,9.66
2023-03-16T10:20:30.707Z,5.97
2023-03-16T10:25:39.048Z,6.53
2023-03-16T10:30:49.988Z,7.28
2023-03-16T10:35:48.166Z,6.10
2023-03-16T10:40:56.951Z,6.24
2023-03-16T10:46:05.901Z,5.98
2023-03-16T10:51:15.840Z,6.27
2023-03-16T10:56:24.036Z,4.49
2023-03-16T11:01:33.771Z,3.81
2023-03-16T11:06:42.752Z,3.93
2023-03-16T11:11:51.185Z,3.97
2023-03-16T11:17:00.264Z,4.09
2023-03-16T11:22:08.833Z,5.81
2023-03-16T11:27:17.886Z,5.00
2023-03-16T11:32:29.864Z,4.72
2023-03-16T11:37:27.645Z,3.86
2023-03-16T11:42:38.661Z,3.10
2023-03-16T11:47:37.014Z,3.91
2023-03-16T11:52:47.882Z,3.30
2023-03-16T11:57:47.200Z,2.83
2023-03-16T12:02:55.967Z,2.77
2023-03-16T12:08:05.597Z,2.65
2023-03-16T12:13:14.133Z,2.99
2023-03-16T12:18:22.124Z,2.25
2023-03-16T12:23:31.818Z,2.46
2023-03-16T12:28:41.464Z,2.25
2023-03-16T12:33:50.537Z,2.29
2023-03-16T12:39:01.539Z,2.70
2023-03-16T12:44:00.949Z,5.58
2023-03-16T12:49:10.987Z,5.07
2023-03-16T12:54:15.063Z,4.37
2023-03-16T12:59:13.958Z,6.30
2023-03-16T13:04:24.123Z,2.88
2023-03-16T13:09:32.367Z,5.92
2023-03-16T13:14:42.401Z,9.46
2023-03-16T13:19:41.621Z,8.35
2023-03-16T13:24:51.523Z,2.25
2023-03-16T13:30:01.146Z,1.53
2023-03-16T13:35:11.420Z,6.72
2023-03-16T13:40:09.821Z,1.39
2023-03-16T13:45:20.537Z,4.08
2023-03-16T13:50:19.776Z,2.23
2023-03-16T13:55:28.213Z,0.92
2023-03-16T14:00:36.552Z,1.26
2023-03-16T14:05:45.062Z,0.49
2023-03-16T14:10:55.523Z,0.61
2023-03-16T14:15:56.765Z,0.57
2023-03-16T14:20:55.662Z,0.90
2023-03-16T14:26:04.866Z,0.91
2023-03-16T14:31:14.484Z,0.72
2023-03-16T14:36:23.889Z,1.04
2023-03-16T14:41:32.847Z,1.08
2023-03-16T14:46:42.743Z,1.40
2023-03-16T14:51:51.725Z,1.70
2023-03-16T14:57:01.284Z,1.82
2023-03-16T15:02:11.197Z,3.79
2023-03-16T15:07:21.191Z,4.16
2023-03-16T15:12:31.712Z,3.95
2023-03-16T15:17:31.361Z,4.17
2023-03-16T15:22:39.658Z,2.66
2023-03-16T15:27:49.387Z,2.94
2023-03-16T15:32:58.074Z,2.07
2023-03-16T15:38:07.508Z,2.51
2023-03-16T15:43:15.316Z,2.17
2023-03-16T15:48:25.204Z,1.87
2023-03-16T15:53:30.921Z,1.80
2023-03-16T15:58:36.243Z,2.01
2023-03-16T16:03:44.647Z,2.15
2023-03-16T16:08:56.653Z,2.45
2023-03-16T16:13:54.598Z,2.57
2023-03-16T16:19:04.057Z,2.49
2023-03-16T16:24:14.280Z,2.57
2023-03-16T16:29:12.637Z,2.72
2023-03-16T16:34:21.758Z,2.77
2023-03-16T16:39:31.256Z,3.01
2023-03-16T16:44:39.541Z,3.65
2023-03-16T16:49:50.159Z,3.24
2023-03-16T16:54:48.405Z,3.04
2023-03-16T16:59:59.660Z,2.92
2023-03-16T17:04:57.492Z,2.84
2023-03-16T17:10:07.766Z,2.56
2023-03-16T17:15:05.917Z,2.60
2023-03-16T17:20:16.154Z,2.41
2023-03-16T17:25:14.275Z,2.67
2023-03-16T17:30:22.630Z,3.16
2023-03-16T17:35:31.984Z,3.28
2023-03-16T17:40:42.423Z,3.86
2023-03-16T17:45:45.598Z,4.07
2023-03-16T17:50:46.732Z,3.91
2023-03-16T17:55:48.447Z,4.04
2023-03-16T18:00:49.458Z,4.07
2023-03-16T18:05:52.737Z,3.86
2023-03-16T18:10:51.660Z,3.90
2023-03-16T18:16:01.335Z,4.02
2023-03-16T18:21:09.798Z,3.39
2023-03-16T18:26:18.683Z,3.73
2023-03-16T18:31:28.730Z,3.46
2023-03-16T18:36:38.037Z,3.59
2023-03-16T18:41:47.741Z,3.90
2023-03-16T18:46:56.318Z,3.80
2023-03-16T18:52:04.967Z,3.35
2023-03-16T18:57:14.501Z,3.24
2023-03-16T19:02:24.431Z,2.83
2023-03-16T19:07:27.797Z,2.97
2023-03-16T19:12:37.113Z,2.73
2023-03-16T19:17:46.896Z,2.83
2023-03-16T19:22:58.008Z,2.74
2023-03-16T19:27:57.602Z,2.56
2023-03-16T19:33:08.014Z,2.28
2023-03-16T19:38:06.418Z,2.22
2023-03-16T19:43:16.411Z,2.44
2023-03-16T19:48:24.979Z,2.38
2023-03-16T19:53:37.406Z,2.11
2023-03-16T19:58:36.498Z,1.79
2023-03-16T20:03:46.141Z,1.76
2023-03-16T20:08:55.963Z,1.84
2023-03-16T20:14:05.650Z,2.16
2023-03-16T20:19:13.885Z,1.94
2023-03-16T20:24:23.549Z,2.29
2023-03-16T20:29:32.092Z,2.78
2023-03-16T20:34:41.713Z,2.24
2023-03-16T20:39:50.883Z,2.32
2023-03-16T20:45:00.351Z,2.36
2023-03-16T20:50:08.532Z,1.80
2023-03-16T20:55:18.071Z,1.77
2023-03-16T21:00:27.681Z,1.83
2023-03-16T21:05:37.028Z,1.81
2023-03-16T21:10:46.859Z,1.78
2023-03-16T21:15:56.301Z,1.82
2023-03-16T21:21:00.652Z,1.62
2023-03-16T21:26:10.994Z,1.96
2023-03-16T21:31:09.580Z,2.07
2023-03-16T21:36:18.062Z,2.18
2023-03-16T21:41:27.396Z,2.44
2023-03-16T21:46:36.153Z,2.54
2023-03-16T21:51:44.262Z,2.19
2023-03-16T21:56:54.803Z,2.36
2023-03-16T22:02:01.597Z,2.27
2023-03-16T22:07:02.795Z,2.38
2023-03-16T22:12:10.658Z,2.26
2023-03-16T22:17:20.435Z,2.38
2023-03-16T22:22:30.559Z,2.12
2023-03-16T22:27:29.302Z,2.16
2023-03-16T22:32:38.843Z,2.08
2023-03-16T22:37:48.588Z,2.35
2023-03-16T22:42:58.180Z,2.71
2023-03-16T22:48:06.731Z,3.10
2023-03-16T22:53:15.907Z,3.28
2023-03-16T22:58:25.682Z,3.80
2023-03-16T23:03:35.145Z,4.33
2023-03-16T23:08:46.427Z,4.36
2023-03-16T23:13:44.611Z,4.48
2023-03-16T23:18:56.254Z,4.20
2023-03-16T23:24:03.485Z,3.55
2023-03-16T23:29:02.961Z,2.53
2023-03-16T23:34:11.494Z,2.30
2023-03-16T23:39:21.725Z,2.18
2023-03-16T23:44:20.921Z,2.21
2023-03-16T23:49:32.972Z,2.45
2023-03-16T23:54:30.845Z,2.63
2023-03-16T23:59:40.693Z,2.62
